Time;durP1;ratioP1;P1;durP2;ratioP2;P2;SDS_P1;SDS_P2;PMS_P1;PMS_P2;Temp;Humidity;BMP_temperature;BMP_pressure;BME280_temperature;BME280_humidity;BME280_pressure;Samples;Min_cycle;Max_cycle;Signal;HPM_P1;HPM_P2
2021/12/09 00:02:05;;;;;;;2.35;1.60;;;9.00;99.90;;;;;;4998208;28;20022;-70
2021/12/09 00:04:31;;;;;;;3.83;2.10;;;9.10;99.90;;;;;;5002170;28;20018;-71
2021/12/09 00:07:00;;;;;;;5.63;1.83;;;9.10;99.90;;;;;;5005133;28;20026;-70
2021/12/09 00:09:26;;;;;;;2.75;1.10;;;9.10;99.90;;;;;;5007503;28;20447;-70
2021/12/09 00:11:52;;;;;;;2.90;1.52;;;9.20;99.90;;;;;;5008480;28;20441;-70
2021/12/09 00:14:25;;;;;;;4.07;2.42;;;9.10;99.90;;;;;;5001124;28;20030;-70
2021/12/09 00:16:53;;;;;;;2.70;1.50;;;9.10;99.90;;;;;;5015902;28;20033;-71
2021/12/09 00:19:19;;;;;;;4.20;1.50;;;9.20;99.90;;;;;;5000886;28;20038;-70
2021/12/09 00:21:45;;;;;;;2.13;1.25;;;9.20;99.90;;;;;;5010886;28;20036;-70
2021/12/09 00:24:11;;;;;;;1.98;1.40;;;9.20;99.90;;;;;;5007312;28;20026;-70
2021/12/09 00:26:38;;;;;;;4.65;1.98;;;9.20;99.90;;;;;;5000382;28;20045;-70
2021/12/09 00:29:05;;;;;;;6.13;1.85;;;9.20;99.90;;;;;;5004406;28;20017;-70
2021/12/09 00:31:31;;;;;;;2.55;2.00;;;9.20;99.90;;;;;;5006655;28;20065;-69
2021/12/09 00:33:58;;;;;;;4.68;2.42;;;9.10;99.90;;;;;;4990706;28;20446;-70
2021/12/09 00:36:31;;;;;;;5.63;2.42;;;9.10;99.90;;;;;;5007451;28;20026;-69
2021/12/09 00:38:58;;;;;;;4.88;2.35;;;9.10;99.90;;;;;;5008800;28;20022;-70
2021/12/09 00:41:25;;;;;;;4.93;1.92;;;9.00;99.90;;;;;;5003043;28;20554;-70
2021/12/09 00:43:51;;;;;;;4.80;1.92;;;9.00;99.90;;;;;;5007952;28;20028;-70
2021/12/09 00:46:16;;;;;;;7.97;2.45;;;9.00;99.90;;;;;;5007962;28;20081;-70
2021/12/09 00:48:43;;;;;;;8.23;3.25;;;9.00;99.90;;;;;;5011956;28;20064;-69
2021/12/09 00:51:10;;;;;;;2.90;2.03;;;9.00;99.90;;;;;;5020215;28;20542;-71
2021/12/09 00:53:37;;;;;;;3.35;1.95;;;8.90;99.90;;;;;;5012423;28;20034;-70
2021/12/09 00:56:04;;;;;;;3.72;1.92;;;8.90;99.90;;;;;;5014707;28;20018;-70
2021/12/09 00:58:30;;;;;;;4.20;1.73;;;8.90;99.90;;;;;;5014384;28;20035;-69
2021/12/09 01:00:56;;;;;;;7.30;1.48;;;8.90;99.90;;;;;;5016632;28;20105;-70
2021/12/09 01:03:22;;;;;;;3.55;2.13;;;9.00;99.90;;;;;;5016269;28;20100;-70
2021/12/09 01:05:49;;;;;;;3.80;1.85;;;8.90;99.90;;;;;;5009442;28;20161;-70
2021/12/09 01:08:15;;;;;;;3.25;2.33;;;9.00;99.90;;;;;;5010219;28;20069;-71
2021/12/09 01:10:41;;;;;;;5.10;1.30;;;9.00;99.90;;;;;;5010542;28;20429;-70
2021/12/09 01:13:08;;;;;;;2.35;1.30;;;9.00;99.90;;;;;;4986718;28;20065;-70
2021/12/09 01:15:34;;;;;;;5.20;1.70;;;9.10;99.90;;;;;;5006011;28;20031;-70
2021/12/09 01:18:00;;;;;;;5.03;2.15;;;9.10;99.90;;;;;;4991229;28;20038;-70
2021/12/09 01:20:27;;;;;;;2.65;1.92;;;9.10;99.90;;;;;;5009695;28;20056;-70
2021/12/09 01:22:54;;;;;;;5.15;2.45;;;9.20;99.90;;;;;;5007441;28;20018;-70
2021/12/09 01:25:22;;;;;;;4.35;3.78;;;9.20;99.90;;;;;;5005581;28;20061;-70
2021/12/09 01:27:50;;;;;;;4.97;2.42;;;9.10;99.90;;;;;;5004439;28;20024;-70
2021/12/09 01:30:18;;;;;;;1.88;1.52;;;9.20;99.90;;;;;;5004002;28;20103;-70
2021/12/09 01:32:50;;;;;;;1.88;1.75;;;9.20;99.90;;;;;;4999230;28;20560;-70
2021/12/09 01:35:33;;;;;;;3.42;1.42;;;9.20;99.90;;;;;;5002290;28;20099;-70
2021/12/09 01:38:02;;;;;;;1.88;1.67;;;9.20;99.90;;;;;;5006865;28;20065;-70
2021/12/09 01:40:29;;;;;;;2.65;1.80;;;9.20;99.90;;;;;;5009729;28;20095;-70
2021/12/09 01:42:57;;;;;;;4.13;2.03;;;9.30;99.90;;;;;;5007331;28;20099;-70
2021/12/09 01:45:23;;;;;;;3.08;2.42;;;9.30;99.90;;;;;;5004345;28;20144;-70
2021/12/09 01:47:49;;;;;;;3.42;2.45;;;9.30;99.90;;;;;;5007728;28;20029;-70
2021/12/09 01:50:16;;;;;;;3.08;2.40;;;9.30;99.90;;;;;;5005144;28;20372;-70
2021/12/09 01:52:42;;;;;;;4.15;2.30;;;9.20;99.90;;;;;;5006457;28;20494;-70
2021/12/09 01:55:10;;;;;;;2.30;1.88;;;9.20;99.90;;;;;;5007519;28;20033;-70
2021/12/09 01:57:36;;;;;;;1.77;1.63;;;9.10;99.90;;;;;;5007446;28;20030;-70
2021/12/09 02:00:07;;;;;;;1.42;1.33;;;9.10;99.90;;;;;;5006450;28;20030;-70
2021/12/09 02:02:33;;;;;;;7.88;2.33;;;9.10;99.90;;;;;;5002582;28;20483;-69
2021/12/09 02:04:59;;;;;;;2.15;1.77;;;9.10;99.90;;;;;;5007828;28;20417;-70
2021/12/09 02:07:24;;;;;;;3.20;1.65;;;9.10;99.90;;;;;;5008430;28;20026;-70
2021/12/09 02:09:50;;;;;;;2.83;1.98;;;9.00;99.90;;;;;;5008226;28;20036;-70
2021/12/09 02:12:16;;;;;;;2.25;1.67;;;9.10;99.90;;;;;;5008161;28;20057;-70
2021/12/09 02:14:43;;;;;;;2.83;1.98;;;9.10;99.90;;;;;;5005325;28;20133;-70
2021/12/09 02:17:11;;;;;;;1.30;1.20;;;9.10;99.90;;;;;;5002772;28;20175;-70
2021/12/09 02:19:41;;;;;;;2.35;1.25;;;9.00;99.90;;;;;;5007712;28;20081;-70
2021/12/09 02:22:08;;;;;;;2.55;1.20;;;9.00;99.90;;;;;;5003920;28;20031;-70
2021/12/09 02:24:33;;;;;;;1.92;1.30;;;8.90;99.90;;;;;;5007941;28;20042;-70
2021/12/09 02:26:59;;;;;;;6.03;1.73;;;8.90;99.90;;;;;;5007592;28;20056;-69
2021/12/09 02:29:25;;;;;;;2.22;1.25;;;8.90;99.90;;;;;;5012155;28;20448;-70
2021/12/09 02:31:56;;;;;;;1.20;1.10;;;8.90;99.90;;;;;;5011896;28;20037;-70
2021/12/09 02:34:22;;;;;;;1.52;1.40;;;8.90;99.90;;;;;;5006932;28;20109;-70
2021/12/09 02:36:50;;;;;;;1.98;0.90;;;8.90;99.90;;;;;;5011493;28;20436;-69
2021/12/09 02:39:16;;;;;;;1.95;1.30;;;8.80;99.90;;;;;;4992651;28;20033;-70
2021/12/09 02:41:43;;;;;;;1.77;0.70;;;8.70;99.90;;;;;;4994016;28;20022;-69
2021/12/09 02:44:12;;;;;;;1.85;0.90;;;8.70;99.90;;;;;;5012030;28;20026;-70
2021/12/09 02:46:39;;;;;;;1.45;1.10;;;8.60;99.90;;;;;;5013211;28;20026;-70
2021/12/09 02:49:19;;;;;;;2.00;1.20;;;8.60;99.90;;;;;;5011608;28;20037;-69
2021/12/09 02:51:47;;;;;;;1.67;1.27;;;8.50;99.90;;;;;;4993125;28;20030;-69
2021/12/09 02:54:15;;;;;;;1.90;1.65;;;8.50;99.90;;;;;;5012894;28;20095;-69
2021/12/09 02:56:47;;;;;;;3.05;1.65;;;8.40;99.90;;;;;;5008020;28;20034;-69
2021/12/09 02:59:13;;;;;;;2.15;2.00;;;8.40;99.90;;;;;;5011684;28;20065;-69
2021/12/09 03:01:57;;;;;;;3.22;1.83;;;8.40;99.90;;;;;;5010147;28;20482;-70
2021/12/09 03:04:36;;;;;;;2.67;1.70;;;8.30;99.90;;;;;;5009944;28;20018;-69
2021/12/09 03:07:04;;;;;;;2.55;2.35;;;8.20;99.90;;;;;;5008856;28;20113;-69
2021/12/09 03:09:30;;;;;;;1.88;1.75;;;8.20;99.90;;;;;;5008831;28;20018;-70
2021/12/09 03:11:58;;;;;;;6.05;2.15;;;8.10;99.90;;;;;;5010416;28;20421;-70
2021/12/09 03:14:24;;;;;;;2.88;2.67;;;8.10;99.90;;;;;;5011479;28;20412;-70
2021/12/09 03:16:52;;;;;;;3.08;2.42;;;8.00;99.90;;;;;;5008200;28;20052;-70
2021/12/09 03:19:18;;;;;;;2.50;2.30;;;7.90;99.90;;;;;;5011294;28;20045;-70
2021/12/09 03:21:45;;;;;;;3.03;2.72;;;7.80;99.90;;;;;;5005964;28;20014;-70
2021/12/09 03:24:19;;;;;;;2.60;2.40;;;7.50;99.90;;;;;;5011000;28;20455;-69
2021/12/09 03:26:51;;;;;;;4.03;2.83;;;7.20;99.90;;;;;;5003210;28;20109;-69
2021/12/09 03:29:18;;;;;;;3.45;3.10;;;7.10;99.90;;;;;;5007119;28;20044;-68
2021/12/09 03:31:46;;;;;;;3.65;3.35;;;7.10;99.90;;;;;;5010136;28;20025;-69
2021/12/09 03:34:13;;;;;;;3.08;2.78;;;7.10;99.90;;;;;;5010047;28;20026;-70
2021/12/09 03:36:40;;;;;;;3.45;3.15;;;7.10;99.90;;;;;;5018260;28;20025;-70
2021/12/09 03:39:14;;;;;;;2.58;2.38;;;7.10;99.90;;;;;;5024186;28;20480;-69
2021/12/09 03:41:41;;;;;;;3.15;2.75;;;7.00;99.90;;;;;;5021704;28;20502;-69
2021/12/09 03:44:07;;;;;;;4.13;3.47;;;7.00;99.90;;;;;;5018685;28;20145;-69
2021/12/09 03:46:33;;;;;;;2.65;2.47;;;7.00;99.90;;;;;;5008020;28;20101;-69
2021/12/09 03:48:59;;;;;;;2.58;2.38;;;6.90;99.90;;;;;;5011593;28;20040;-70
2021/12/09 03:51:25;;;;;;;2.60;2.38;;;7.00;99.90;;;;;;5015346;28;20104;-69
2021/12/09 03:53:51;;;;;;;3.15;2.78;;;6.90;99.90;;;;;;5018281;28;20028;-70
2021/12/09 03:56:17;;;;;;;3.03;2.83;;;6.90;99.90;;;;;;5022977;28;20025;-69
2021/12/09 03:58:43;;;;;;;2.35;2.22;;;6.90;99.90;;;;;;5011826;28;20475;-69
2021/12/09 04:01:09;;;;;;;6.53;2.90;;;6.70;99.90;;;;;;4990888;28;20065;-69
2021/12/09 04:03:35;;;;;;;3.67;3.38;;;6.60;99.90;;;;;;4999219;28;20753;-69
2021/12/09 04:06:00;;;;;;;3.72;3.42;;;6.50;99.90;;;;;;5011105;28;20041;-69
2021/12/09 04:08:26;;;;;;;2.63;2.42;;;6.50;99.90;;;;;;5011323;28;20091;-69
2021/12/09 04:10:52;;;;;;;3.20;2.90;;;6.50;99.90;;;;;;4994187;28;20443;-69
2021/12/09 04:13:18;;;;;;;3.75;3.03;;;6.40;99.90;;;;;;5004738;28;20033;-69
2021/12/09 04:15:44;;;;;;;3.40;3.10;;;6.40;99.90;;;;;;5009508;28;20033;-69
2021/12/09 04:18:10;;;;;;;2.50;2.30;;;6.40;99.90;;;;;;5008682;28;20719;-69
2021/12/09 04:20:37;;;;;;;3.33;3.03;;;6.40;99.90;;;;;;5011252;28;20019;-70
2021/12/09 04:23:03;;;;;;;2.85;2.65;;;6.30;99.90;;;;;;5008227;28;20068;-70
2021/12/09 04:25:30;;;;;;;5.50;2.83;;;6.40;99.90;;;;;;5012607;28;20089;-70
2021/12/09 04:27:56;;;;;;;3.63;3.00;;;6.30;99.90;;;;;;5007139;28;20037;-70
2021/12/09 04:30:24;;;;;;;2.80;2.60;;;6.20;99.90;;;;;;5010489;28;20103;-69
2021/12/09 04:32:54;;;;;;;3.38;3.08;;;6.20;99.90;;;;;;5011002;28;20034;-69
2021/12/09 04:35:20;;;;;;;3.65;3.20;;;6.10;99.90;;;;;;5007640;28;20036;-70
2021/12/09 04:37:47;;;;;;;3.92;3.45;;;6.20;99.90;;;;;;5006148;28;20053;-70
2021/12/09 04:40:15;;;;;;;3.53;3.22;;;6.10;99.90;;;;;;5005601;28;20072;-70
2021/12/09 04:42:41;;;;;;;4.65;4.25;;;6.10;99.90;;;;;;5011043;28;20078;-70
2021/12/09 04:45:09;;;;;;;4.53;3.92;;;6.10;99.90;;;;;;5010660;28;20026;-69
2021/12/09 04:47:35;;;;;;;5.75;3.70;;;6.10;99.90;;;;;;5009697;28;20575;-69
2021/12/09 04:50:02;;;;;;;3.60;3.30;;;6.10;99.90;;;;;;5009905;28;20026;-69
2021/12/09 04:52:28;;;;;;;4.72;3.63;;;6.20;99.90;;;;;;4987306;28;21108;-69
2021/12/09 04:54:54;;;;;;;3.17;2.88;;;6.20;99.90;;;;;;5019373;28;20049;-69
2021/12/09 04:57:20;;;;;;;3.67;3.10;;;6.20;99.90;;;;;;5021561;28;20105;-71
2021/12/09 04:59:47;;;;;;;4.55;4.07;;;6.20;99.90;;;;;;5017190;28;20074;-69
2021/12/09 05:02:16;;;;;;;4.75;3.65;;;6.30;99.90;;;;;;5024228;28;20022;-69
2021/12/09 05:04:42;;;;;;;4.00;3.20;;;6.30;99.90;;;;;;5029852;28;20025;-69
2021/12/09 05:07:08;;;;;;;4.53;3.83;;;6.20;99.90;;;;;;5023663;28;20121;-69
2021/12/09 05:09:38;;;;;;;4.88;3.92;;;6.20;99.90;;;;;;5029221;28;20378;-69
2021/12/09 05:12:05;;;;;;;4.05;3.65;;;6.20;99.90;;;;;;5027808;28;20029;-69
2021/12/09 05:14:31;;;;;;;6.63;4.63;;;6.20;99.90;;;;;;5029347;28;20018;-69
2021/12/09 05:16:57;;;;;;;5.28;4.57;;;6.20;99.90;;;;;;5020689;28;20034;-69
2021/12/09 05:19:24;;;;;;;4.60;4.20;;;6.20;99.90;;;;;;5019229;28;20112;-70
2021/12/09 05:21:52;;;;;;;8.52;4.47;;;6.20;99.90;;;;;;5019722;28;20040;-70
2021/12/09 05:24:19;;;;;;;4.63;4.18;;;6.10;99.90;;;;;;5020430;28;20088;-69
2021/12/09 05:26:49;;;;;;;4.05;3.50;;;6.00;99.90;;;;;;5003604;28;20080;-70
2021/12/09 05:29:17;;;;;;;4.32;3.92;;;6.00;99.90;;;;;;5020283;28;20561;-70
2021/12/09 05:34:28;;;;;;;4.57;4.10;;;5.80;99.90;;;;;;5020703;28;20048;-69
2021/12/09 05:36:54;;;;;;;5.18;4.03;;;5.90;99.90;;;;;;5031705;28;20041;-71
2021/12/09 05:39:20;;;;;;;4.80;4.40;;;5.80;99.90;;;;;;5029564;28;20464;-69
2021/12/09 05:41:47;;;;;;;4.25;3.90;;;5.80;99.90;;;;;;5026716;28;20072;-69
2021/12/09 05:44:13;;;;;;;4.88;4.47;;;5.80;99.90;;;;;;5027247;28;20014;-69
2021/12/09 05:46:43;;;;;;;4.57;4.13;;;5.70;99.90;;;;;;5025909;28;20022;-69
2021/12/09 05:49:10;;;;;;;6.10;5.35;;;5.70;99.90;;;;;;5023805;28;20033;-70
2021/12/09 05:51:37;;;;;;;5.65;5.15;;;5.70;99.90;;;;;;5025925;28;20022;-69
2021/12/09 05:54:04;;;;;;;4.38;4.05;;;5.80;99.90;;;;;;5030174;28;20061;-71
2021/12/09 05:56:30;;;;;;;4.45;4.05;;;5.80;99.90;;;;;;5028804;28;20034;-69
2021/12/09 05:58:56;;;;;;;6.35;5.18;;;5.90;99.90;;;;;;5027791;28;20041;-71
2021/12/09 06:01:22;;;;;;;5.43;4.82;;;5.80;99.90;;;;;;5024954;28;20045;-69
2021/12/09 06:03:48;;;;;;;5.70;5.10;;;5.90;99.90;;;;;;5026258;28;20049;-70
2021/12/09 06:06:14;;;;;;;4.95;4.55;;;6.00;99.90;;;;;;5025484;28;20022;-69
2021/12/09 06:08:40;;;;;;;5.90;4.45;;;5.90;99.90;;;;;;5020739;28;20057;-67
2021/12/09 06:11:08;;;;;;;7.30;3.83;;;5.80;99.90;;;;;;4992981;28;20123;-66
2021/12/09 06:13:37;;;;;;;5.28;3.92;;;5.70;99.90;;;;;;5010699;28;20642;-68
2021/12/09 06:16:03;;;;;;;5.80;5.22;;;5.70;99.90;;;;;;5008313;28;20022;-65
2021/12/09 06:18:29;;;;;;;4.75;4.20;;;5.70;99.90;;;;;;5011183;28;20065;-68
2021/12/09 06:20:55;;;;;;;4.93;4.43;;;5.70;99.90;;;;;;5010512;28;20490;-64
2021/12/09 06:23:21;;;;;;;4.50;4.10;;;5.70;99.90;;;;;;5005712;28;20128;-66
2021/12/09 06:25:47;;;;;;;5.35;4.85;;;5.70;99.90;;;;;;5007792;28;20487;-66
2021/12/09 06:28:12;;;;;;;4.45;4.05;;;5.70;99.90;;;;;;5008386;28;20022;-67
2021/12/09 06:30:38;;;;;;;4.78;4.38;;;5.60;99.90;;;;;;5007862;28;20030;-67
2021/12/09 06:33:05;;;;;;;3.95;3.55;;;5.60;99.90;;;;;;5009433;28;20030;-67
2021/12/09 06:35:33;;;;;;;5.55;5.00;;;5.60;99.90;;;;;;5008274;28;20030;-67
2021/12/09 06:38:00;;;;;;;4.68;4.22;;;5.60;99.90;;;;;;5009292;28;20693;-68
2021/12/09 06:40:26;;;;;;;4.68;4.25;;;5.60;99.90;;;;;;5010564;28;20026;-68
2021/12/09 06:42:53;;;;;;;4.80;4.10;;;5.60;99.90;;;;;;5008683;28;20053;-68
2021/12/09 06:45:21;;;;;;;4.78;4.38;;;5.60;99.90;;;;;;5008360;28;20030;-68
2021/12/09 06:47:48;;;;;;;4.80;4.40;;;5.60;99.90;;;;;;5009846;28;20154;-67
2021/12/09 06:50:17;;;;;;;4.95;4.55;;;5.60;99.90;;;;;;5008999;28;20076;-68
2021/12/09 06:52:43;;;;;;;5.55;5.00;;;5.70;99.90;;;;;;4992210;28;20052;-69
2021/12/09 06:55:12;;;;;;;4.85;4.18;;;5.80;99.90;;;;;;5008973;28;20026;-67
2021/12/09 06:57:38;;;;;;;5.20;4.30;;;5.90;99.90;;;;;;5013418;28;20081;-67
2021/12/09 07:00:11;;;;;;;5.18;4.10;;;6.00;99.90;;;;;;5011591;28;20029;-67
2021/12/09 07:02:37;;;;;;;6.00;5.03;;;6.00;99.90;;;;;;5012710;28;20096;-67
2021/12/09 07:05:04;;;;;;;4.90;4.07;;;6.00;99.90;;;;;;5009907;28;20030;-65
2021/12/09 07:07:30;;;;;;;4.85;4.45;;;6.00;99.90;;;;;;5011910;28;20018;-67
2021/12/09 07:09:56;;;;;;;5.57;4.57;;;6.10;99.90;;;;;;5010891;28;20041;-67
2021/12/09 07:12:21;;;;;;;5.05;4.60;;;6.10;99.90;;;;;;4997209;28;20108;-67
2021/12/09 07:14:47;;;;;;;6.10;4.18;;;6.00;99.90;;;;;;5015410;28;20026;-67
2021/12/09 07:17:13;;;;;;;9.35;3.88;;;5.80;99.90;;;;;;5016669;28;20080;-66
2021/12/09 07:19:39;;;;;;;4.43;4.03;;;5.70;99.90;;;;;;5018022;28;20033;-66
2021/12/09 07:22:05;;;;;;;5.30;4.78;;;5.70;99.90;;;;;;5023085;28;20098;-68
2021/12/09 07:24:31;;;;;;;5.90;4.35;;;5.70;99.90;;;;;;5022848;28;20498;-66
2021/12/09 07:26:57;;;;;;;8.85;4.85;;;5.70;99.90;;;;;;5018733;28;20081;-68
2021/12/09 07:29:24;;;;;;;7.35;5.38;;;5.70;99.90;;;;;;5016993;28;20052;-67
2021/12/09 07:31:51;;;;;;;5.18;4.68;;;5.80;99.90;;;;;;5018243;28;20097;-68
2021/12/09 07:34:16;;;;;;;5.95;5.38;;;5.80;99.90;;;;;;5013613;28;20038;-66
2021/12/09 07:36:43;;;;;;;5.78;5.18;;;5.80;99.90;;;;;;5012006;28;20060;-67
2021/12/09 07:39:09;;;;;;;5.50;5.03;;;5.80;99.90;;;;;;5011297;28;20035;-66
2021/12/09 07:41:35;;;;;;;5.55;5.05;;;5.80;99.90;;;;;;5013796;28;20077;-69
2021/12/09 07:44:02;;;;;;;5.65;5.03;;;5.80;99.90;;;;;;5013183;28;20351;-68
2021/12/09 07:46:29;;;;;;;5.00;4.55;;;5.70;99.90;;;;;;5012296;28;20498;-68
2021/12/09 07:48:55;;;;;;;5.28;4.78;;;5.60;99.90;;;;;;5012927;28;20042;-67
2021/12/09 07:51:21;;;;;;;6.40;5.43;;;5.50;99.90;;;;;;5011359;28;20105;-67
2021/12/09 07:53:47;;;;;;;12.90;6.78;;;5.60;99.90;;;;;;5012446;28;20125;-69
2021/12/09 07:56:12;;;;;;;8.88;5.97;;;5.60;99.90;;;;;;5012141;28;20103;-68
2021/12/09 07:58:38;;;;;;;5.38;4.90;;;5.60;99.90;;;;;;5012230;28;20033;-67
2021/12/09 08:01:04;;;;;;;6.88;5.35;;;5.70;99.90;;;;;;5010995;28;20365;-67
2021/12/09 08:03:30;;;;;;;6.95;5.80;;;5.60;99.90;;;;;;5012591;28;20022;-68
2021/12/09 08:05:56;;;;;;;6.13;5.13;;;5.60;99.90;;;;;;5011480;28;20420;-68
2021/12/09 08:08:22;;;;;;;5.28;4.65;;;5.60;99.90;;;;;;5012424;28;20014;-70
2021/12/09 08:10:48;;;;;;;4.93;4.47;;;5.60;99.90;;;;;;5013250;28;20117;-66
2021/12/09 08:13:14;;;;;;;5.20;4.70;;;5.40;99.90;;;;;;5013254;28;20026;-66
2021/12/09 08:15:45;;;;;;;6.93;6.22;;;5.40;99.90;;;;;;5012822;28;20073;-67
2021/12/09 08:20:45;;;;;;;10.10;6.40;;;5.30;99.90;;;;;;5008948;28;20038;-66
2021/12/09 08:23:10;;;;;;;6.43;5.80;;;5.40;99.90;;;;;;5010853;28;20032;-67
2021/12/09 08:25:36;;;;;;;5.97;5.38;;;5.40;99.90;;;;;;5007327;28;20424;-67
2021/12/09 08:28:02;;;;;;;7.35;6.40;;;5.40;99.90;;;;;;5009665;28;20491;-67
2021/12/09 08:30:28;;;;;;;6.18;5.60;;;5.40;99.90;;;;;;5009612;28;20050;-67
2021/12/09 08:32:54;;;;;;;5.82;5.22;;;5.40;99.90;;;;;;5010935;28;20046;-68
2021/12/09 08:35:20;;;;;;;6.68;4.68;;;5.30;99.90;;;;;;5009573;28;20458;-68
2021/12/09 08:37:47;;;;;;;6.60;5.75;;;5.40;99.90;;;;;;5010812;28;20030;-68
2021/12/09 08:40:15;;;;;;;5.97;5.00;;;5.30;99.90;;;;;;5008091;28;20053;-67
2021/12/09 08:42:41;;;;;;;6.13;5.53;;;5.30;99.90;;;;;;5010016;28;20106;-69
2021/12/09 08:45:10;;;;;;;7.50;4.75;;;5.30;99.90;;;;;;5010487;28;20380;-67
2021/12/09 08:47:37;;;;;;;8.70;6.50;;;5.40;99.90;;;;;;5011262;28;20602;-67
2021/12/09 08:50:04;;;;;;;8.40;7.50;;;5.40;99.90;;;;;;5008055;28;20060;-67
2021/12/09 08:52:30;;;;;;;6.55;5.82;;;5.40;99.90;;;;;;5010253;28;20397;-67
2021/12/09 08:54:56;;;;;;;6.60;5.78;;;5.50;99.90;;;;;;5010113;28;20030;-68
2021/12/09 08:57:22;;;;;;;9.70;6.72;;;5.50;99.90;;;;;;5010188;28;20033;-68
2021/12/09 08:59:48;;;;;;;11.10;6.45;;;5.50;99.90;;;;;;5008582;28;20183;-68
2021/12/09 09:02:14;;;;;;;10.35;6.63;;;5.60;99.90;;;;;;5010842;28;20544;-67
2021/12/09 09:04:40;;;;;;;6.03;5.00;;;5.70;99.90;;;;;;5011351;28;20026;-67
2021/12/09 09:07:07;;;;;;;8.90;6.03;;;5.80;99.90;;;;;;5011465;28;20030;-68
2021/12/09 09:09:34;;;;;;;7.82;6.68;;;5.90;99.90;;;;;;5010908;28;20026;-67
2021/12/09 09:12:08;;;;;;;6.10;5.25;;;6.00;99.90;;;;;;4988580;28;20034;-67
2021/12/09 09:14:34;;;;;;;7.25;5.97;;;6.00;99.90;;;;;;5007485;28;20506;-67
2021/12/09 09:17:00;;;;;;;6.38;5.88;;;5.90;99.90;;;;;;5011169;28;20030;-67
2021/12/09 09:19:26;;;;;;;7.65;6.10;;;5.90;99.90;;;;;;4993257;28;20483;-68
2021/12/09 09:21:52;;;;;;;6.13;5.47;;;5.90;99.90;;;;;;4993973;28;20037;-67
2021/12/09 09:24:18;;;;;;;6.80;6.10;;;5.90;99.90;;;;;;5011179;28;20018;-67
2021/12/09 09:26:44;;;;;;;5.30;4.80;;;5.90;99.90;;;;;;5006092;28;20145;-69
2021/12/09 09:29:10;;;;;;;6.40;5.07;;;5.90;99.90;;;;;;4993623;28;20502;-67
2021/12/09 09:31:37;;;;;;;5.53;5.03;;;5.90;99.90;;;;;;4993249;28;20030;-67
2021/12/09 09:34:03;;;;;;;4.72;4.32;;;6.00;99.90;;;;;;5011769;28;20026;-68
2021/12/09 09:36:33;;;;;;;4.10;3.70;;;6.00;99.90;;;;;;5012365;28;20096;-68
2021/12/09 09:39:11;;;;;;;6.57;4.18;;;5.90;99.90;;;;;;5006360;28;20025;-68
2021/12/09 09:41:37;;;;;;;6.28;5.68;;;5.90;99.90;;;;;;5010723;28;20022;-68
2021/12/09 09:44:16;;;;;;;4.85;4.43;;;5.90;99.90;;;;;;5010081;28;20093;-66
2021/12/09 09:46:43;;;;;;;5.53;4.93;;;5.90;99.90;;;;;;5009867;28;20105;-68
2021/12/09 09:49:09;;;;;;;4.07;3.67;;;6.40;99.90;;;;;;5007338;28;20076;-66
2021/12/09 09:51:37;;;;;;;6.68;5.10;;;6.70;99.90;;;;;;5009724;28;20479;-67
2021/12/09 09:54:04;;;;;;;6.50;4.22;;;6.40;99.90;;;;;;5011114;28;20101;-70
2021/12/09 09:56:32;;;;;;;8.07;5.97;;;6.70;99.90;;;;;;5010532;28;20476;-68
2021/12/09 09:59:05;;;;;;;10.95;8.23;;;6.80;99.90;;;;;;5008918;28;20037;-69
2021/12/09 10:01:33;;;;;;;4.47;4.05;;;6.90;99.90;;;;;;5010019;28;20093;-69
2021/12/09 10:04:10;;;;;;;4.20;3.80;;;6.80;99.90;;;;;;5010350;28;20029;-69
2021/12/09 10:06:42;;;;;;;6.07;5.43;;;6.60;99.90;;;;;;5009824;28;20025;-69
2021/12/09 10:09:09;;;;;;;5.05;4.57;;;6.60;99.90;;;;;;5007731;28;20062;-67
2021/12/09 10:11:37;;;;;;;9.18;5.90;;;6.40;99.90;;;;;;4992075;28;20026;-69
2021/12/09 10:14:19;;;;;;;8.73;5.38;;;6.20;99.90;;;;;;5010284;28;20034;-70
2021/12/09 10:16:59;;;;;;;5.15;4.75;;;6.20;99.90;;;;;;4988532;28;20030;-67
2021/12/09 10:19:25;;;;;;;3.70;3.45;;;6.10;99.90;;;;;;5007207;28;20085;-68
2021/12/09 10:22:04;;;;;;;5.03;4.53;;;6.00;99.90;;;;;;5009553;28;20419;-67
2021/12/09 10:24:31;;;;;;;8.95;4.45;;;6.00;99.90;;;;;;5010064;28;20018;-68
2021/12/09 10:26:57;;;;;;;7.15;6.63;;;6.00;99.90;;;;;;5001708;28;20049;-68
2021/12/09 10:29:47;;;;;;;5.47;4.50;;;6.00;99.90;;;;;;5008297;28;20038;-69
2021/12/09 10:32:19;;;;;;;6.43;3.88;;;6.10;99.90;;;;;;5006288;28;20096;-69
2021/12/09 10:34:47;;;;;;;4.00;3.70;;;6.20;99.90;;;;;;5009162;28;20030;-69
2021/12/09 10:37:23;;;;;;;4.47;4.07;;;6.20;99.90;;;;;;4992369;28;20532;-68
2021/12/09 10:40:06;;;;;;;6.72;4.22;;;6.20;99.90;;;;;;5008013;28;20025;-66
2021/12/09 10:42:45;;;;;;;5.68;5.18;;;6.30;99.90;;;;;;4987932;28;20383;-69
2021/12/09 10:45:23;;;;;;;4.53;4.13;;;6.30;99.90;;;;;;5007241;28;20539;-69
2021/12/09 10:47:55;;;;;;;3.90;3.50;;;6.30;99.90;;;;;;5012811;28;20032;-68
2021/12/09 10:55:53;;;;;;;4.00;3.70;;;6.10;99.90;;;;;;5016363;28;20462;-68
2021/12/09 10:58:29;;;;;;;4.20;3.72;;;6.00;99.90;;;;;;5014359;28;20129;-68
2021/12/09 11:01:03;;;;;;;4.65;4.25;;;5.90;99.90;;;;;;5011291;28;20556;-67
2021/12/09 11:03:34;;;;;;;4.10;3.70;;;5.80;99.90;;;;;;5011383;28;20030;-68
2021/12/09 11:06:02;;;;;;;4.03;2.90;;;5.70;99.90;;;;;;5008983;28;20029;-69
2021/12/09 11:08:37;;;;;;;4.40;3.55;;;5.60;99.90;;;;;;5010848;28;20046;-68
2021/12/09 11:11:07;;;;;;;3.72;3.42;;;5.50;99.90;;;;;;5006166;28;20382;-67
2021/12/09 11:13:39;;;;;;;4.43;4.03;;;5.50;99.90;;;;;;5011933;28;20024;-68
2021/12/09 11:16:06;;;;;;;3.92;3.63;;;5.50;99.90;;;;;;5011941;28;20018;-68
2021/12/09 11:18:40;;;;;;;3.75;3.45;;;5.40;99.90;;;;;;5013647;28;20026;-69
2021/12/09 11:21:31;;;;;;;3.75;3.40;;;5.50;99.90;;;;;;5011702;28;20030;-67
2021/12/09 11:24:01;;;;;;;3.97;3.67;;;5.40;99.90;;;;;;5010820;28;20530;-68
2021/12/09 11:26:46;;;;;;;4.10;3.70;;;5.40;99.90;;;;;;5008089;28;20029;-68
2021/12/09 11:29:24;;;;;;;5.72;5.28;;;5.50;99.90;;;;;;5013934;28;20080;-69
2021/12/09 11:34:47;;;;;;;3.88;3.58;;;5.70;99.90;;;;;;5014045;28;20026;-69
2021/12/09 11:39:57;;;;;;;4.70;4.30;;;5.80;99.90;;;;;;5012918;28;20105;-69
2021/12/09 11:42:31;;;;;;;4.60;4.20;;;5.70;99.90;;;;;;5012570;28;20026;-69
2021/12/09 11:44:57;;;;;;;3.28;2.97;;;5.80;99.90;;;;;;5009323;28;20068;-69
2021/12/09 11:47:23;;;;;;;5.20;4.18;;;5.80;99.90;;;;;;5002890;28;20040;-70
2021/12/09 11:49:51;;;;;;;4.53;4.13;;;5.80;99.90;;;;;;4954804;29;20039;-69
2021/12/09 11:52:20;;;;;;;3.85;3.42;;;5.90;99.90;;;;;;4944639;28;20024;-69
2021/12/09 11:54:58;;;;;;;7.75;4.22;;;5.80;99.90;;;;;;4935673;29;20043;-69
2021/12/09 12:14:55;;;;;;;4.93;4.50;;;5.90;99.90;;;;;;4954401;28;20027;-68
2021/12/09 12:20:27;;;;;;;4.72;4.32;;;5.90;99.90;;;;;;4959363;28;20409;-67
2021/12/09 12:29:10;;;;;;;6.10;5.53;;;6.20;99.90;;;;;;4953849;29;20360;-68
2021/12/09 12:34:39;;;;;;;8.20;7.13;;;6.40;99.90;;;;;;4931411;29;20039;-68
2021/12/09 12:37:12;;;;;;;9.57;8.57;;;6.40;99.90;;;;;;4950019;29;20038;-68
2021/12/09 12:42:31;;;;;;;6.18;5.57;;;6.40;99.90;;;;;;4954471;28;20061;-69
2021/12/09 12:45:37;;;;;;;7.68;6.07;;;6.40;99.90;;;;;;4953788;28;20086;-67
2021/12/09 12:51:44;;;;;;;7.20;6.50;;;6.70;99.90;;;;;;4925230;28;20031;-69
2021/12/09 12:55:13;;;;;;;6.60;6.00;;;6.70;99.90;;;;;;4953744;28;20078;-68
2021/12/09 12:57:17;;;;;;;7.30;6.55;;;6.70;99.90;;;;;;4944894;29;20027;-68
2021/12/09 12:59:59;;;;;;;6.78;6.18;;;6.90;99.90;;;;;;4953617;28;20054;-69
2021/12/09 13:05:05;;;;;;;;;;;7.20;99.90;;;;;;4935393;29;20082;-67
2021/12/09 13:07:45;;;;;;;7.72;6.50;;;7.10;99.90;;;;;;4936356;29;19970;-67
2021/12/09 13:11:02;;;;;;;7.57;6.30;;;7.00;99.90;;;;;;4934465;29;20031;-67
2021/12/09 13:21:40;;;;;;;5.63;5.13;;;7.30;99.90;;;;;;4954842;28;20058;-68
2021/12/09 13:30:24;;;;;;;5.15;4.65;;;7.10;99.90;;;;;;4953415;28;20031;-69
2021/12/09 13:33:26;;;;;;;5.07;4.60;;;7.00;99.90;;;;;;4952678;28;20089;-67
2021/12/09 13:47:14;;;;;;;9.15;8.25;;;6.80;99.90;;;;;;4952843;29;20032;-68
2021/12/09 13:55:05;;;;;;;;;;;6.70;99.90;;;;;;4951390;29;20536;-69
2021/12/09 13:57:38;;;;;;;3.63;3.33;;;6.80;99.90;;;;;;4950916;29;20440;-68
2021/12/09 14:00:12;;;;;;;4.80;3.78;;;6.80;99.90;;;;;;4952273;28;20540;-66
2021/12/09 14:02:38;;;;;;;4.47;4.07;;;6.80;99.90;;;;;;4951370;29;20027;-67
2021/12/09 14:05:06;;;;;;;4.50;3.58;;;6.80;99.90;;;;;;4949789;29;20024;-68
2021/12/09 14:07:44;;;;;;;5.03;3.97;;;6.80;99.90;;;;;;4951561;28;20042;-68
2021/12/09 14:10:14;;;;;;;5.22;4.68;;;6.80;99.90;;;;;;4950227;28;20059;-68
2021/12/09 14:12:49;;;;;;;11.38;4.80;;;6.80;99.90;;;;;;4951714;28;20020;-68
2021/12/09 14:15:21;;;;;;;5.30;3.88;;;6.90;99.90;;;;;;4952184;28;20038;-68
2021/12/09 14:18:05;;;;;;;7.32;3.90;;;6.80;99.90;;;;;;4947722;28;20031;-68
2021/12/09 14:20:31;;;;;;;4.40;3.50;;;6.90;99.90;;;;;;4950580;28;20034;-66
2021/12/09 14:22:56;;;;;;;5.35;3.67;;;6.80;99.90;;;;;;4955191;28;20031;-68
2021/12/09 14:25:25;;;;;;;4.72;3.67;;;6.90;99.90;;;;;;4956365;28;20043;-68
2021/12/09 14:27:53;;;;;;;4.82;3.60;;;6.90;99.90;;;;;;4954520;29;20048;-67
2021/12/09 14:30:21;;;;;;;3.50;3.20;;;6.90;99.90;;;;;;4953304;28;20683;-67
2021/12/09 14:32:51;;;;;;;4.40;4.00;;;6.80;99.90;;;;;;4951804;28;20038;-67